Main page
METAR-TAF:

METAR-TAF

Airports :

Port of Spain, Trinidad, Trinidad and Tobago

Piarco International Airport

latitude: 10-37N, longitude: 061-21W, elevation: 12 m

Current weather observation

The report was made 47 minutes ago, at 02:00 UTC
Wind 5 kt from the East
Temperature 26°C
Humidity 84%
Pressure 1012 hPa
Visibility 10 km or more
Few clouds at a height of 1800 ft

METAR: TTPP 300200Z 10005KT 9999 FEW018 26/23 Q1012 NOSIG

Time: 22:47 (02:47 UTC)

Forecast

The report was made 4 hours and 47 minutes ago, at 22:00 UTC
Forecast valid from 30 at 00 UTC to 30 at 24 UTC
Wind 5 kt from the East/Southeast
Visibility 10 km or more
Few clouds at a height of 1600 ft
Probability 30% :
Temporary
from 30 at 04 UTC to 30 at 10 UTC
Visibility: 7000 m
Scattered clouds at a height of 1400 ft
rain showers
Becoming
from 30 at 11 UTC to 30 at 13 UTC
Wind 14 kt from the East
Scattered clouds at a height of 2200 ft

TAF: TTPP 292200Z 3000/3024 11005KT 9999 FEW016 PROB30 TEMPO 3004/3010 7000 SHRA SCT014 BECMG 3011/3013 10014KT SCT022

Weather observations and forecasts of more than 4000 airports (METAR and TAF reports).

The available stations are represented by yellow and red dots on the map.

Hover mouse over dot to see the name of the station.

Then click to see weather observations and forecasts.

To change the map : click on the green buttons with a black cross to zoom in, on the green button with a dash to zoom out, or on the green arrows for adjacent maps.


METAR-TAF: